Time;durP1;ratioP1;P1;durP2;ratioP2;P2;SDS_P1;SDS_P2;PMS_P1;PMS_P2;Temp;Humidity;BMP_temperature;BMP_pressure;BME280_temperature;BME280_humidity;BME280_pressure;Samples;Min_cycle;Max_cycle;Signal;HPM_P1;HPM_P2
2023/12/26 00:01:48;;;;;;;5.60;3.00;;;;;;;8.85;75.32;95287.90;106651;1275;22635;-78
2023/12/26 00:04:16;;;;;;;5.00;2.10;;;;;;;8.84;75.09;95283.35;106648;1275;24311;-78
2023/12/26 00:06:47;;;;;;;5.30;2.80;;;;;;;8.84;75.01;95285.10;106656;1275;24289;-78
2023/12/26 00:09:18;;;;;;;4.40;2.40;;;;;;;8.81;74.78;95284.80;106670;1275;23895;-78
2023/12/26 00:11:47;;;;;;;3.00;1.60;;;;;;;8.67;75.07;95286.26;106659;1275;22523;-78
2023/12/26 00:14:16;;;;;;;5.30;1.70;;;;;;;8.57;75.34;95286.60;106658;1275;25294;-78
2023/12/26 00:16:45;;;;;;;5.30;1.80;;;;;;;8.57;75.78;95293.27;106331;1275;652778;-77
2023/12/26 00:19:14;;;;;;;3.30;1.80;;;;;;;8.58;75.85;95292.38;106590;1275;22536;-77
2023/12/26 00:21:42;;;;;;;2.60;1.80;;;;;;;8.58;76.06;95301.83;106658;1275;22616;-77
2023/12/26 00:24:10;;;;;;;5.00;2.00;;;;;;;8.64;76.22;95296.48;106610;1270;24202;-78
2023/12/26 00:26:39;;;;;;;6.00;2.40;;;;;;;8.71;75.97;95299.52;106655;1274;24240;-77
2023/12/26 00:29:08;;;;;;;3.50;1.80;;;;;;;8.75;76.04;95299.10;106738;1275;25263;-78
2023/12/26 00:31:41;;;;;;;5.40;2.00;;;;;;;8.76;75.84;95299.61;106495;1275;22534;-78
2023/12/26 00:34:09;;;;;;;4.50;1.60;;;;;;;8.78;75.96;95303.10;106670;1263;22666;-78
2023/12/26 00:36:37;;;;;;;4.20;1.80;;;;;;;8.82;75.87;95293.89;106637;1275;24244;-78
2023/12/26 00:39:06;;;;;;;3.20;1.20;;;;;;;8.81;76.11;95300.58;106619;1275;25426;-78
2023/12/26 00:41:35;;;;;;;5.10;1.50;;;;;;;8.78;75.89;95300.98;106651;1275;25366;-78
2023/12/26 00:44:04;;;;;;;3.40;1.30;;;;;;;8.72;75.90;95304.08;106632;1275;23141;-78
2023/12/26 00:46:32;;;;;;;6.40;2.40;;;;;;;8.59;76.20;95304.28;106590;1275;24279;-78
2023/12/26 00:49:01;;;;;;;5.50;1.70;;;;;;;8.53;76.64;95305.42;106601;1275;22642;-78
2023/12/26 00:51:30;;;;;;;2.20;1.20;;;;;;;8.49;76.84;95301.79;106645;1275;22744;-78
2023/12/26 00:53:58;;;;;;;2.40;1.30;;;;;;;8.50;77.38;95297.04;106847;1275;22656;-78
2023/12/26 00:56:27;;;;;;;6.30;1.90;;;;;;;8.51;77.50;95307.21;106863;1275;25670;-78
2023/12/26 00:58:55;;;;;;;2.50;1.40;;;;;;;8.59;77.79;95307.95;106828;1275;24289;-77
2023/12/26 01:01:23;;;;;;;2.00;1.30;;;;;;;8.73;77.50;95310.71;106676;1275;25599;-78
2023/12/26 01:03:51;;;;;;;4.50;1.40;;;;;;;8.76;77.19;95307.15;106743;1275;22542;-78
2023/12/26 01:06:20;;;;;;;3.60;1.60;;;;;;;8.70;77.03;95310.61;106521;1275;23021;-78
2023/12/26 01:08:48;;;;;;;3.50;1.40;;;;;;;8.69;77.51;95309.55;106599;1275;22656;-78
2023/12/26 01:11:16;;;;;;;4.60;1.60;;;;;;;8.71;77.53;95314.61;106657;1275;24280;-78
2023/12/26 01:13:45;;;;;;;4.30;1.60;;;;;;;8.71;77.42;95312.34;106607;1275;24235;-78
2023/12/26 01:16:13;;;;;;;4.00;1.30;;;;;;;8.69;77.52;95306.04;106588;1275;24225;-78
2023/12/26 01:18:42;;;;;;;2.70;1.40;;;;;;;8.68;77.64;95315.72;106689;1275;25435;-77
2023/12/26 01:21:10;;;;;;;3.70;1.60;;;;;;;8.61;77.40;95315.46;106643;1275;24481;-78
2023/12/26 01:23:39;;;;;;;2.10;1.10;;;;;;;8.51;77.11;95321.73;106617;1275;23267;-78
2023/12/26 01:26:08;;;;;;;3.00;1.30;;;;;;;8.37;77.37;95320.54;106805;1272;22587;-78
2023/12/26 01:28:36;;;;;;;2.30;1.10;;;;;;;8.32;78.07;95318.85;106647;1275;24053;-78
2023/12/26 01:31:05;;;;;;;3.10;1.50;;;;;;;8.32;78.40;95314.11;106627;1275;25372;-78
2023/12/26 01:33:33;;;;;;;3.70;1.30;;;;;;;8.31;78.22;95320.09;106645;1275;22630;-78
2023/12/26 01:36:02;;;;;;;3.10;1.30;;;;;;;8.25;78.29;95319.11;106619;1252;23642;-78
2023/12/26 01:38:30;;;;;;;3.10;1.20;;;;;;;8.27;78.43;95322.07;106655;1275;24247;-78
2023/12/26 01:40:58;;;;;;;2.80;1.00;;;;;;;8.34;78.32;95325.30;106627;1275;22655;-78
2023/12/26 01:43:26;;;;;;;2.10;1.00;;;;;;;8.39;78.10;95327.86;106634;1275;22522;-78
2023/12/26 01:46:00;;;;;;;3.20;1.30;;;;;;;8.39;77.86;95331.20;106653;1275;22664;-78
2023/12/26 01:48:29;;;;;;;4.20;1.40;;;;;;;8.42;77.95;95337.11;106660;1275;24235;-78
2023/12/26 01:51:00;;;;;;;1.70;0.90;;;;;;;8.48;77.69;95332.67;106629;1275;22663;-78
2023/12/26 01:53:29;;;;;;;1.90;1.20;;;;;;;8.53;77.54;95330.48;106702;1273;22528;-77
2023/12/26 01:55:58;;;;;;;2.40;1.10;;;;;;;8.55;77.41;95340.44;106648;1275;22617;-78
2023/12/26 01:58:27;;;;;;;5.80;1.70;;;;;;;8.54;77.28;95345.90;106621;1275;25508;-78
2023/12/26 02:00:55;;;;;;;3.70;1.20;;;;;;;8.51;77.34;95348.23;106614;1275;22540;-79
2023/12/26 02:03:23;;;;;;;3.60;1.30;;;;;;;8.44;77.23;95351.82;106642;1275;25505;-78
2023/12/26 02:05:52;;;;;;;5.10;1.30;;;;;;;8.40;77.50;95355.20;106503;1275;22520;-78
2023/12/26 02:08:21;;;;;;;1.70;1.00;;;;;;;8.40;77.47;95350.64;106679;1275;22657;-77
2023/12/26 02:10:49;;;;;;;2.50;1.30;;;;;;;8.41;77.61;95346.59;106622;1275;25628;-78
2023/12/26 02:13:18;;;;;;;4.20;1.40;;;;;;;8.52;77.63;95345.74;106619;1275;22751;-77
2023/12/26 02:15:53;;;;;;;4.40;1.40;;;;;;;8.60;77.42;95350.71;106722;1275;22552;-78
2023/12/26 02:18:21;;;;;;;1.50;1.00;;;;;;;8.71;77.08;95350.02;106630;1275;22657;-77
2023/12/26 02:20:50;;;;;;;2.50;1.30;;;;;;;8.76;76.77;95349.24;106740;1265;24644;-78
2023/12/26 02:23:19;;;;;;;1.90;1.10;;;;;;;8.83;76.57;95352.29;106470;1275;25632;-78
2023/12/26 02:25:48;;;;;;;3.20;1.10;;;;;;;8.87;76.29;95353.47;106677;1275;25512;-78
2023/12/26 02:28:17;;;;;;;1.70;1.40;;;;;;;8.86;76.30;95353.29;106653;1275;25435;-78
2023/12/26 02:30:47;;;;;;;1.80;1.10;;;;;;;8.83;76.08;95345.79;106608;1275;24987;-78
2023/12/26 02:33:16;;;;;;;2.10;1.40;;;;;;;8.82;76.04;95357.75;106642;1275;22624;-77
2023/12/26 02:35:45;;;;;;;3.50;1.20;;;;;;;8.78;76.03;95356.05;106668;1275;22608;-78
2023/12/26 02:38:13;;;;;;;3.80;1.70;;;;;;;8.77;75.97;95358.36;106611;1275;24277;-78
2023/12/26 02:40:42;;;;;;;3.00;1.50;;;;;;;8.76;75.93;95361.52;106669;1275;22567;-78
2023/12/26 02:43:11;;;;;;;1.90;1.10;;;;;;;8.73;75.76;95356.66;106689;1275;23907;-78
2023/12/26 02:45:41;;;;;;;1.90;1.20;;;;;;;8.69;75.70;95353.20;106641;1275;26686;-78
2023/12/26 02:48:09;;;;;;;2.60;1.20;;;;;;;8.67;75.61;95348.33;106726;1275;25423;-78
2023/12/26 02:50:38;;;;;;;1.30;0.80;;;;;;;8.64;75.67;95342.06;106643;1275;25998;-78
2023/12/26 02:53:06;;;;;;;3.50;1.10;;;;;;;8.62;75.70;95344.73;106616;1275;24255;-78
2023/12/26 02:55:35;;;;;;;6.40;1.30;;;;;;;8.61;75.84;95343.34;106613;1275;22526;-77
2023/12/26 02:58:03;;;;;;;2.50;1.30;;;;;;;8.65;75.68;95351.52;106632;1275;22617;-77
2023/12/26 03:00:31;;;;;;;2.80;1.60;;;;;;;8.70;75.65;95353.55;106638;1275;22542;-78
2023/12/26 03:03:00;;;;;;;2.60;1.30;;;;;;;8.70;75.69;95363.21;106653;1275;24386;-78
2023/12/26 03:05:28;;;;;;;4.90;2.10;;;;;;;8.62;75.60;95366.63;106704;1265;23689;-78
2023/12/26 03:07:56;;;;;;;4.80;1.70;;;;;;;8.57;75.86;95375.13;106624;1275;22573;-78
2023/12/26 03:10:25;;;;;;;3.30;2.10;;;;;;;8.57;76.11;95381.62;106765;1275;24255;-78
2023/12/26 03:12:54;;;;;;;3.90;1.60;;;;;;;8.61;76.07;95375.08;106477;1275;24286;-78
2023/12/26 03:15:22;;;;;;;3.70;1.60;;;;;;;8.66;76.11;95379.39;106620;1275;24398;-78
2023/12/26 03:17:53;;;;;;;4.30;1.90;;;;;;;8.70;75.79;95383.38;106657;1275;22585;-77
2023/12/26 03:20:22;;;;;;;5.50;1.70;;;;;;;8.70;75.43;95383.18;106669;1275;22653;-77
2023/12/26 03:22:50;;;;;;;3.30;1.60;;;;;;;8.68;75.47;95378.66;106599;1275;24380;-78
2023/12/26 03:25:18;;;;;;;3.00;1.80;;;;;;;8.63;75.28;95377.85;106634;1273;24210;-78
2023/12/26 03:27:47;;;;;;;4.00;1.40;;;;;;;8.59;75.39;95370.53;106613;1275;25429;-78
2023/12/26 03:30:17;;;;;;;5.70;1.50;;;;;;;8.53;75.38;95362.20;106636;1275;22516;-76
2023/12/26 03:32:45;;;;;;;3.50;1.40;;;;;;;8.51;75.34;95358.04;106658;1275;22934;-78
2023/12/26 03:35:14;;;;;;;3.60;1.40;;;;;;;8.53;75.21;95347.13;106644;1275;23948;-77
2023/12/26 03:37:42;;;;;;;3.10;1.20;;;;;;;8.58;75.00;95352.14;106662;1275;24362;-77
2023/12/26 03:40:11;;;;;;;1.40;0.90;;;;;;;8.58;74.90;95353.72;106609;1275;24212;-79
2023/12/26 03:42:42;;;;;;;2.50;1.10;;;;;;;8.60;74.83;95344.77;106687;1254;22552;-78
2023/12/26 03:45:10;;;;;;;2.30;1.00;;;;;;;8.57;74.83;95350.77;106497;1275;26649;-78
2023/12/26 03:47:39;;;;;;;4.30;1.40;;;;;;;8.46;74.84;95355.30;106599;1271;22669;-78
2023/12/26 03:50:10;;;;;;;2.10;0.90;;;;;;;8.32;74.97;95353.20;106643;1275;22527;-78
2023/12/26 03:52:40;;;;;;;3.20;1.20;;;;;;;8.17;75.49;95354.61;106514;1274;24244;-78
2023/12/26 03:55:08;;;;;;;1.30;0.90;;;;;;;8.06;75.55;95355.63;106689;1275;22635;-78
2023/12/26 03:57:38;;;;;;;3.60;0.90;;;;;;;7.91;75.89;95356.17;106641;1275;25411;-78
2023/12/26 04:00:07;;;;;;;1.80;1.00;;;;;;;7.77;76.16;95360.36;106628;1275;24212;-78
2023/12/26 04:02:44;;;;;;;2.50;0.90;;;;;;;7.59;76.86;95363.71;106645;1271;22539;-78
2023/12/26 04:05:14;;;;;;;2.40;1.20;;;;;;;7.58;77.60;95367.40;106720;1275;25355;-77
2023/12/26 04:07:43;;;;;;;2.30;1.40;;;;;;;7.61;77.40;95366.67;106563;1275;22789;-78
2023/12/26 04:10:11;;;;;;;1.90;1.30;;;;;;;7.68;77.67;95362.39;106638;1275;25441;-78
2023/12/26 04:12:41;;;;;;;6.80;2.90;;;;;;;7.68;77.23;95359.75;106651;1275;25431;-78
2023/12/26 04:15:10;;;;;;;4.90;1.80;;;;;;;7.55;77.62;95358.49;106652;1275;25301;-78
2023/12/26 04:17:38;;;;;;;3.30;0.90;;;;;;;7.67;77.65;95358.89;106649;1275;24212;-78
2023/12/26 04:20:08;;;;;;;2.00;0.90;;;;;;;7.81;77.20;95360.48;106724;1275;25405;-78
2023/12/26 04:22:37;;;;;;;1.50;0.70;;;;;;;7.83;76.94;95357.14;106433;1275;22645;-78
2023/12/26 04:25:06;;;;;;;2.10;0.90;;;;;;;7.79;76.98;95364.70;106630;1275;22530;-78
2023/12/26 04:27:35;;;;;;;1.80;0.70;;;;;;;7.78;76.93;95366.30;106680;1275;24384;-78
2023/12/26 04:30:05;;;;;;;2.00;0.80;;;;;;;7.77;77.04;95365.79;106610;1275;22702;-78
2023/12/26 04:32:34;;;;;;;3.00;1.40;;;;;;;7.73;76.88;95372.65;106643;1275;22678;-78
2023/12/26 04:35:03;;;;;;;2.90;1.40;;;;;;;7.61;77.05;95368.25;106712;1275;22676;-78
2023/12/26 04:37:32;;;;;;;2.00;1.00;;;;;;;7.55;77.51;95364.97;106658;1275;22742;-78
2023/12/26 04:40:00;;;;;;;1.90;1.00;;;;;;;7.51;77.26;95358.73;106617;1275;22547;-78
2023/12/26 04:42:29;;;;;;;3.60;1.80;;;;;;;7.43;77.70;95366.50;106651;1275;24231;-78
2023/12/26 04:44:57;;;;;;;2.30;0.70;;;;;;;7.36;77.93;95367.61;106607;1275;24222;-78
2023/12/26 04:47:28;;;;;;;2.90;1.20;;;;;;;7.32;78.33;95366.42;106608;1275;24267;-78
2023/12/26 04:49:59;;;;;;;1.50;0.70;;;;;;;7.37;78.84;95368.67;106686;1275;22526;-78
2023/12/26 04:52:27;;;;;;;1.50;0.90;;;;;;;7.50;78.69;95371.66;106588;1275;24239;-78
2023/12/26 04:54:55;;;;;;;5.20;1.00;;;;;;;7.52;78.06;95368.51;106630;1275;22934;-77
2023/12/26 04:57:24;;;;;;;2.10;1.00;;;;;;;7.43;78.20;95372.09;106650;1275;22547;-78
2023/12/26 04:59:52;;;;;;;2.50;1.00;;;;;;;7.38;78.13;95371.61;106661;1274;23287;-78
2023/12/26 05:02:21;;;;;;;1.70;1.00;;;;;;;7.25;77.95;95371.23;106665;1274;25719;-78
2023/12/26 05:04:49;;;;;;;1.30;0.80;;;;;;;7.12;78.06;95377.80;106645;1274;22530;-77
2023/12/26 05:07:17;;;;;;;6.00;1.30;;;;;;;7.07;78.94;95373.12;106688;1274;23892;-78
2023/12/26 05:09:46;;;;;;;4.10;1.10;;;;;;;7.10;78.83;95373.98;106686;1274;24293;-77
2023/12/26 05:12:14;;;;;;;2.30;0.90;;;;;;;7.22;78.91;95375.44;106630;1274;22761;-78
2023/12/26 05:14:43;;;;;;;1.10;0.60;;;;;;;7.44;78.81;95373.48;106671;1274;24218;-77
2023/12/26 05:17:13;;;;;;;1.70;0.90;;;;;;;7.49;78.34;95373.27;106639;1274;22645;-77
2023/12/26 05:19:41;;;;;;;3.00;0.90;;;;;;;7.46;77.98;95375.40;106675;1274;22555;-77
2023/12/26 05:22:10;;;;;;;2.40;1.00;;;;;;;7.39;78.07;95377.73;106639;1263;26065;-78
2023/12/26 05:24:39;;;;;;;1.90;1.00;;;;;;;7.35;78.50;95380.56;107000;1274;25547;-77
2023/12/26 05:27:20;;;;;;;2.40;1.10;;;;;;;7.31;78.48;95380.09;107020;1274;25253;-78
2023/12/26 05:29:48;;;;;;;3.00;0.90;;;;;;;7.26;78.70;95380.66;106662;1274;24234;-78
2023/12/26 05:32:17;;;;;;;2.60;0.80;;;;;;;7.26;78.95;95385.55;106710;1274;22804;-77
2023/12/26 05:34:48;;;;;;;3.80;0.80;;;;;;;7.30;78.96;95382.71;106692;1274;25243;-78
2023/12/26 05:37:16;;;;;;;3.30;1.50;;;;;;;7.31;78.79;95386.73;106696;1253;22757;-78
2023/12/26 05:39:45;;;;;;;3.90;1.40;;;;;;;7.25;78.77;95384.53;106634;1274;25447;-78
2023/12/26 05:42:16;;;;;;;2.00;1.20;;;;;;;7.20;78.70;95384.56;106725;1274;24279;-77
2023/12/26 05:44:44;;;;;;;2.90;1.20;;;;;;;7.17;78.96;95386.86;106679;1274;24232;-77
2023/12/26 05:47:13;;;;;;;3.50;1.00;;;;;;;7.15;78.96;95386.88;106637;1274;24067;-77
2023/12/26 05:49:42;;;;;;;3.10;1.00;;;;;;;7.26;79.33;95388.36;106643;1274;24213;-77
2023/12/26 05:52:12;;;;;;;3.50;1.40;;;;;;;7.36;78.97;95386.87;106742;1274;22527;-77
2023/12/26 05:54:40;;;;;;;7.50;2.30;;;;;;;7.51;78.36;95391.80;106650;1274;22653;-77
2023/12/26 05:57:09;;;;;;;1.40;0.90;;;;;;;7.81;77.54;95390.23;106590;1274;22529;-77
2023/12/26 05:59:38;;;;;;;1.10;0.80;;;;;;;8.03;76.74;95390.01;106641;1274;23149;-77
2023/12/26 06:02:06;;;;;;;2.40;0.70;;;;;;;8.24;75.84;95390.97;106673;1274;24376;-77
2023/12/26 06:04:36;;;;;;;1.50;0.80;;;;;;;8.37;75.37;95383.64;106685;1274;23879;-77
2023/12/26 06:07:04;;;;;;;2.60;1.30;;;;;;;8.42;74.82;95386.73;106689;1274;24402;-77
2023/12/26 06:09:34;;;;;;;1.20;0.70;;;;;;;8.38;74.94;95398.33;106668;1274;25270;-78
2023/12/26 06:12:02;;;;;;;1.40;0.80;;;;;;;8.46;74.34;95393.86;106740;1274;24280;-77
2023/12/26 06:14:31;;;;;;;2.60;1.10;;;;;;;8.63;73.43;95390.46;106640;1274;22520;-78
2023/12/26 06:17:00;;;;;;;2.90;0.90;;;;;;;8.76;73.17;95389.23;106620;1274;25349;-77
2023/12/26 06:19:29;;;;;;;2.20;1.10;;;;;;;8.84;72.89;95383.31;106686;1274;22572;-77
2023/12/26 06:21:58;;;;;;;1.60;0.80;;;;;;;8.96;72.02;95384.02;106669;1274;22523;-78
2023/12/26 06:24:27;;;;;;;2.00;0.80;;;;;;;9.14;71.11;95382.67;106625;1274;22526;-77
2023/12/26 06:26:55;;;;;;;0.70;0.50;;;;;;;9.20;71.09;95380.30;106670;1268;22532;-77
2023/12/26 06:29:24;;;;;;;1.60;0.90;;;;;;;9.23;71.26;95387.61;106616;1274;22630;-77
2023/12/26 06:31:52;;;;;;;3.50;1.60;;;;;;;9.28;70.14;95387.88;106651;1274;22534;-78
2023/12/26 06:34:20;;;;;;;2.90;0.90;;;;;;;9.25;70.46;95395.84;106680;1274;25369;-78
2023/12/26 06:36:48;;;;;;;6.20;1.90;;;;;;;9.18;70.60;95396.13;106749;1274;22538;-78
2023/12/26 06:39:17;;;;;;;4.10;2.10;;;;;;;9.07;70.44;95398.94;106612;1274;22527;-78
2023/12/26 06:41:46;;;;;;;3.90;1.20;;;;;;;8.98;70.91;95404.69;106676;1274;22528;-78
2023/12/26 06:44:15;;;;;;;5.70;1.60;;;;;;;8.81;71.29;95408.27;106609;1274;25230;-78
2023/12/26 06:46:43;;;;;;;1.90;0.90;;;;;;;8.61;71.80;95409.62;106662;1274;25287;-78
2023/12/26 06:49:16;;;;;;;1.60;0.80;;;;;;;8.49;72.28;95416.44;106635;1274;22520;-78
2023/12/26 06:51:47;;;;;;;10.00;4.00;;;;;;;8.38;72.46;95411.98;106645;1274;22530;-78
2023/12/26 06:54:17;;;;;;;3.10;2.10;;;;;;;8.32;72.70;95412.95;106662;1274;24066;-77
2023/12/26 06:56:46;;;;;;;3.50;0.90;;;;;;;8.18;72.86;95414.35;106634;1274;22516;-78
2023/12/26 06:59:14;;;;;;;6.00;3.00;;;;;;;8.06;73.14;95410.13;106692;1274;24504;-78
2023/12/26 07:01:47;;;;;;;69.60;27.50;;;;;;;8.09;73.47;95410.59;106723;1274;25321;-77
2023/12/26 07:04:15;;;;;;;62.40;23.30;;;;;;;8.23;73.03;95410.08;106655;1274;22732;-78
2023/12/26 07:06:43;;;;;;;30.20;13.50;;;;;;;8.34;72.54;95409.77;106742;1274;24417;-78
2023/12/26 07:09:12;;;;;;;3.20;2.20;;;;;;;8.41;72.66;95413.04;106717;1274;25392;-78
2023/12/26 07:11:40;;;;;;;5.20;2.30;;;;;;;8.33;72.93;95417.50;106635;1274;22526;-78
2023/12/26 07:14:09;;;;;;;5.50;1.90;;;;;;;8.30;72.96;95415.08;106651;1253;24227;-78
2023/12/26 07:16:37;;;;;;;2.30;0.90;;;;;;;8.34;72.56;95421.16;106646;1274;22753;-78
2023/12/26 07:19:05;;;;;;;2.00;0.90;;;;;;;8.42;72.35;95421.25;106607;1274;22784;-78
2023/12/26 07:21:34;;;;;;;3.80;1.30;;;;;;;8.42;72.06;95424.77;106644;1274;22648;-78
2023/12/26 07:24:02;;;;;;;2.20;1.20;;;;;;;8.47;71.96;95422.77;106674;1274;25371;-78
2023/12/26 07:26:30;;;;;;;4.50;1.40;;;;;;;8.46;72.09;95416.47;106658;1271;24393;-78
2023/12/26 07:28:59;;;;;;;2.20;1.00;;;;;;;8.42;72.03;95409.86;106691;1274;22607;-78
2023/12/26 07:31:27;;;;;;;2.10;0.80;;;;;;;8.43;72.25;95415.81;106668;1274;22650;-78
2023/12/26 07:33:57;;;;;;;1.70;0.80;;;;;;;8.38;72.34;95419.18;106664;1274;22533;-78
2023/12/26 07:36:26;;;;;;;3.10;1.80;;;;;;;8.35;72.69;95420.27;106714;1274;24213;-78
2023/12/26 07:38:54;;;;;;;27.10;13.10;;;;;;;8.33;72.94;95422.39;106688;1274;24221;-78
2023/12/26 07:41:23;;;;;;;27.60;12.10;;;;;;;8.40;72.31;95426.52;106725;1274;25297;-78
2023/12/26 07:43:53;;;;;;;19.20;8.10;;;;;;;8.56;71.68;95425.64;106728;1274;24478;-78
2023/12/26 07:46:22;;;;;;;9.20;4.40;;;;;;;8.68;71.92;95427.23;106691;1274;22518;-78
2023/12/26 07:48:50;;;;;;;6.80;2.50;;;;;;;8.73;72.00;95426.27;106638;1274;24468;-78
2023/12/26 07:51:19;;;;;;;1.40;1.10;;;;;;;8.75;72.01;95422.91;106693;1274;22526;-78
2023/12/26 07:53:48;;;;;;;1.30;0.90;;;;;;;8.77;71.95;95425.34;106604;1274;25290;-78
2023/12/26 07:56:16;;;;;;;2.30;0.60;;;;;;;8.74;71.75;95427.50;106659;1274;22688;-77
2023/12/26 07:58:45;;;;;;;16.20;8.30;;;;;;;8.73;71.60;95426.63;106737;1274;25340;-78
2023/12/26 08:01:13;;;;;;;17.10;9.80;;;;;;;8.80;71.99;95425.83;106622;1274;26589;-78
2023/12/26 08:03:42;;;;;;;8.60;5.20;;;;;;;8.84;72.14;95425.59;106668;1274;23207;-78
2023/12/26 08:06:10;;;;;;;14.90;11.30;;;;;;;8.81;72.26;95432.47;106686;1274;25293;-78
2023/12/26 08:08:39;;;;;;;14.80;7.00;;;;;;;8.87;70.57;95424.66;106697;1274;22640;-78
2023/12/26 08:11:07;;;;;;;24.70;15.20;;;;;;;9.17;70.12;95425.79;106704;1274;22522;-78
2023/12/26 08:13:36;;;;;;;13.40;7.90;;;;;;;9.34;69.66;95415.70;106689;1274;22541;-78
2023/12/26 08:16:05;;;;;;;25.20;12.20;;;;;;;9.51;69.87;95416.98;106596;1274;22564;-78
2023/12/26 08:18:34;;;;;;;25.50;13.40;;;;;;;9.69;69.11;95422.46;106711;1274;22567;-78
2023/12/26 08:21:03;;;;;;;20.80;12.00;;;;;;;9.90;67.23;95418.04;106724;1274;24272;-77
2023/12/26 08:23:35;;;;;;;7.40;5.00;;;;;;;10.15;66.02;95418.27;106604;1274;23921;-78
2023/12/26 08:26:07;;;;;;;4.00;2.20;;;;;;;10.38;65.01;95417.64;106690;1274;25344;-78
2023/12/26 08:28:35;;;;;;;8.20;3.40;;;;;;;10.62;64.16;95411.52;106638;1274;22530;-78
2023/12/26 08:31:03;;;;;;;4.60;2.20;;;;;;;10.80;64.81;95410.95;106680;1274;22526;-78
2023/12/26 08:33:32;;;;;;;12.60;11.30;;;;;;;10.86;63.74;95416.98;106684;1274;24429;-78
2023/12/26 08:36:01;;;;;;;3.10;1.90;;;;;;;10.99;62.31;95413.67;106743;1274;22780;-77
2023/12/26 08:38:29;;;;;;;2.00;1.30;;;;;;;11.20;57.80;95411.08;106715;1274;22643;-78
2023/12/26 08:40:58;;;;;;;1.00;0.80;;;;;;;11.43;56.66;95404.54;106717;1274;22535;-78
2023/12/26 08:43:28;;;;;;;3.00;0.80;;;;;;;11.54;56.79;95408.48;106653;1274;24408;-77
2023/12/26 08:45:56;;;;;;;2.80;1.10;;;;;;;11.64;55.96;95414.58;106634;1274;24295;-77
2023/12/26 08:48:24;;;;;;;9.70;5.70;;;;;;;11.68;57.11;95413.92;106642;1274;23889;-78
2023/12/26 08:50:53;;;;;;;14.50;11.60;;;;;;;11.66;58.06;95413.98;106643;1274;24462;-77
2023/12/26 08:53:21;;;;;;;7.60;6.50;;;;;;;11.54;59.79;95416.77;106610;1274;22527;-77
2023/12/26 08:55:50;;;;;;;5.10;3.60;;;;;;;11.39;59.18;95415.56;106722;1274;22792;-78
2023/12/26 08:58:18;;;;;;;8.30;5.70;;;;;;;11.35;59.53;95410.20;106702;1274;22531;-77
2023/12/26 09:00:46;;;;;;;30.70;18.00;;;;;;;11.28;60.59;95416.69;106762;1274;22639;-78
2023/12/26 09:03:14;;;;;;;25.60;14.90;;;;;;;11.18;61.42;95419.23;106618;1274;24234;-78
2023/12/26 09:05:44;;;;;;;17.70;12.00;;;;;;;11.06;62.07;95424.61;106644;1256;22652;-78
2023/12/26 09:08:12;;;;;;;9.90;7.70;;;;;;;10.97;62.55;95424.11;106636;1274;22652;-77
2023/12/26 09:10:40;;;;;;;9.90;5.00;;;;;;;10.86;62.95;95428.95;106654;1274;24271;-78
2023/12/26 09:13:09;;;;;;;7.20;4.00;;;;;;;10.76;63.20;95424.74;106614;1274;22642;-78
2023/12/26 09:15:37;;;;;;;10.50;5.50;;;;;;;10.65;63.54;95421.67;106657;1274;22531;-78
2023/12/26 09:18:05;;;;;;;7.20;4.20;;;;;;;10.59;63.85;95425.83;106624;1274;22627;-78
2023/12/26 09:20:34;;;;;;;16.50;10.00;;;;;;;10.57;63.57;95418.66;106672;1274;22641;-78
2023/12/26 09:23:02;;;;;;;21.40;13.80;;;;;;;10.61;64.14;95416.48;106689;1274;24395;-78
2023/12/26 09:25:30;;;;;;;28.40;16.60;;;;;;;10.63;64.50;95415.38;106626;1274;25664;-78
2023/12/26 09:27:59;;;;;;;58.30;34.00;;;;;;;10.61;65.08;95411.19;106651;1274;25386;-78
2023/12/26 09:30:27;;;;;;;41.70;22.40;;;;;;;10.62;65.15;95413.64;106666;1274;22532;-78
2023/12/26 09:32:55;;;;;;;42.00;22.60;;;;;;;10.59;65.42;95412.64;106645;1274;22539;-78
2023/12/26 09:35:24;;;;;;;31.10;17.20;;;;;;;10.57;65.37;95410.04;106698;1274;25542;-78
2023/12/26 09:37:52;;;;;;;25.10;15.50;;;;;;;10.57;65.33;95406.89;106673;1258;22535;-77
2023/12/26 09:40:21;;;;;;;24.40;16.10;;;;;;;10.62;64.55;95395.16;106668;1252;24360;-78
2023/12/26 09:42:50;;;;;;;21.30;14.10;;;;;;;10.68;64.92;95390.64;106729;1274;25287;-78
2023/12/26 09:45:23;;;;;;;27.30;18.80;;;;;;;10.67;65.24;95388.73;106697;1274;22537;-78
2023/12/26 09:47:51;;;;;;;26.30;17.40;;;;;;;10.63;65.58;95388.63;106744;1271;22662;-78
2023/12/26 09:50:21;;;;;;;64.60;35.50;;;;;;;10.58;65.71;95390.14;106711;1274;24295;-78
2023/12/26 09:52:58;;;;;;;39.00;23.40;;;;;;;10.52;65.94;95399.25;106742;1274;25350;-78
2023/12/26 09:55:27;;;;;;;16.50;10.80;;;;;;;10.47;66.24;95399.35;106728;1274;22526;-78
2023/12/26 09:57:59;;;;;;;15.20;10.60;;;;;;;10.43;66.77;95402.09;106718;1274;22617;-78
2023/12/26 10:00:28;;;;;;;61.50;36.30;;;;;;;10.39;67.61;95406.38;106652;1274;22530;-78
2023/12/26 10:02:56;;;;;;;34.00;21.50;;;;;;;10.34;67.65;95406.66;106707;1274;22547;-78
2023/12/26 10:05:26;;;;;;;16.60;11.00;;;;;;;10.31;67.69;95415.15;106794;1274;24274;-78
2023/12/26 10:07:54;;;;;;;4.10;2.40;;;;;;;10.32;66.79;95411.62;106692;1275;22641;-77
2023/12/26 10:10:23;;;;;;;4.30;2.10;;;;;;;10.45;64.97;95410.46;106691;1274;22553;-78
2023/12/26 10:12:53;;;;;;;3.20;2.00;;;;;;;10.61;64.38;95419.46;106723;1274;22534;-77
2023/12/26 10:15:22;;;;;;;4.70;1.50;;;;;;;10.82;63.10;95419.70;106687;1274;22529;-78
2023/12/26 10:17:51;;;;;;;6.10;2.50;;;;;;;10.97;63.25;95423.23;106697;1274;22565;-78
2023/12/26 10:20:20;;;;;;;4.30;1.30;;;;;;;11.09;62.95;95435.82;106693;1274;22537;-78
2023/12/26 10:22:48;;;;;;;4.40;1.60;;;;;;;11.26;61.96;95431.37;106731;1274;22522;-77
2023/12/26 10:25:17;;;;;;;3.50;1.40;;;;;;;11.44;61.16;95429.70;106721;1274;24342;-79
2023/12/26 10:27:54;;;;;;;9.20;3.10;;;;;;;11.58;61.65;95427.41;106630;1274;22547;-78
2023/12/26 10:30:24;;;;;;;6.80;2.10;;;;;;;11.66;61.60;95432.46;106664;1274;23152;-79
2023/12/26 10:33:00;;;;;;;5.30;1.40;;;;;;;11.74;61.10;95423.49;106632;1274;24069;-78
2023/12/26 10:35:30;;;;;;;10.20;1.80;;;;;;;11.80;61.09;95426.49;106690;1260;22642;-78
2023/12/26 10:37:58;;;;;;;2.90;1.20;;;;;;;11.86;60.85;95425.29;106632;1274;23025;-79
2023/12/26 10:40:26;;;;;;;8.20;2.70;;;;;;;11.91;60.84;95425.36;106903;1274;22551;-79
2023/12/26 10:42:57;;;;;;;4.70;1.80;;;;;;;11.95;60.14;95419.79;106938;1274;25364;-78
2023/12/26 10:45:27;;;;;;;4.80;1.70;;;;;;;11.97;60.29;95422.90;106685;1274;22532;-77
2023/12/26 10:47:57;;;;;;;4.80;2.50;;;;;;;12.01;60.27;95424.36;106771;1274;22543;-78
2023/12/26 10:50:27;;;;;;;9.10;3.00;;;;;;;12.03;60.79;95416.04;106695;1274;22540;-78
2023/12/26 10:53:16;;;;;;;10.00;3.60;;;;;;;12.06;60.61;95419.13;106782;1274;24227;-78
2023/12/26 10:55:46;;;;;;;6.70;2.30;;;;;;;12.10;60.73;95420.78;106667;1274;25442;-78
2023/12/26 10:58:29;;;;;;;5.20;1.70;;;;;;;12.14;60.59;95418.58;106645;1274;25372;-78
2023/12/26 11:00:58;;;;;;;4.00;1.40;;;;;;;12.17;59.82;95415.52;106692;1274;22637;-78
2023/12/26 13:53:09;;;;;;;7.10;2.30;;;;;;;10.72;67.01;95397.58;106700;1274;24244;-78
2023/12/26 13:55:37;;;;;;;4.50;2.10;;;;;;;10.68;67.10;95396.08;106744;1274;22535;-78
2023/12/26 13:58:43;;;;;;;7.00;2.40;;;;;;;10.65;67.26;95389.11;106644;1274;22529;-77
2023/12/26 14:01:49;;;;;;;5.50;2.30;;;;;;;10.61;67.52;95388.34;106763;1274;22520;-78
2023/12/26 14:04:56;;;;;;;9.00;2.80;;;;;;;10.58;67.89;95386.09;106732;1274;25348;-78
2023/12/26 14:07:24;;;;;;;4.30;1.70;;;;;;;10.57;68.15;95380.50;107004;1274;22935;-78
2023/12/26 14:09:52;;;;;;;7.90;2.80;;;;;;;10.55;68.30;95390.91;106831;1274;22576;-78
2023/12/26 14:12:59;;;;;;;3.20;1.90;;;;;;;10.53;68.40;95385.52;106625;1274;22552;-78
2023/12/26 14:16:05;;;;;;;8.10;2.40;;;;;;;10.49;69.07;95387.71;106619;1274;25276;-77
2023/12/26 14:19:12;;;;;;;7.70;2.10;;;;;;;10.46;69.13;95389.36;106768;1274;22620;-78
2023/12/26 14:22:19;;;;;;;7.00;2.50;;;;;;;10.43;69.35;95389.24;106760;1274;24254;-78
2023/12/26 14:25:28;;;;;;;7.30;2.20;;;;;;;10.38;69.53;95391.10;106690;1274;22526;-77
2023/12/26 14:28:34;;;;;;;6.30;2.00;;;;;;;10.32;69.90;95390.16;106841;1274;22689;-77
2023/12/26 14:31:03;;;;;;;4.90;2.00;;;;;;;10.24;70.29;95389.61;106747;1274;22574;-77
2023/12/26 14:34:11;;;;;;;9.10;3.70;;;;;;;10.21;70.53;95392.67;106635;1274;24817;-78